Castlebar Airport

Jump to: basic info | weather | comments

Related pages: nearby airports | nearby navaids | notams | map

Basic information (top)

Codes: CLB EICB
Location: lon 53.848400, lat -9.280370
Status: small_airport

Weather (top)

Current conditions for Ireland West Knock Airport 17nm (31km) ENE (rec'd 2014/04/23 16:30Z):

EIKN 231630Z 16004KT 120V200 9999 FEW020CB SCT045 BKN230 09/07 Q1010 NOSIG

Airport forecast for Ireland West Knock Airport 17nm (31km) ENE (rec'd 2014/04/23 12:25Z):

TAF EIKN 231100Z 2312/2412 21011KT 9999 SCT017 BKN025 
      TEMPO 2312/2321 5000 SHRA SCT010 BKN017CB PROB30 
      TEMPO 2314/2317 4000 TSRA BKN010 BKN016CB 
      BECMG 2321/2324 17005KT 
      BECMG 2407/2409 19010KT

Latest comments (top)

No longer exists.: This airport was closed in 2001 and the ... [read]

fv: fg [read]

More... (top)

See also NOTAMs and nearby airports and navaids, or visit the Castlebar Airport page at the main OurAirports website..